sensor_id;sensor_type;location;lat;lon;timestamp;pressure;altitude;pressure_sealevel;temperature;humidity
6224;BME280;3145;42.726;23.342;2023-04-24T00:01:02;72500.47;;;-142.70;54.56
6224;BME280;3145;42.726;23.342;2023-04-24T00:03:32;72510.53;;;-142.70;54.76
6224;BME280;3145;42.726;23.342;2023-04-24T00:06:01;72508.53;;;-142.70;55.05
6224;BME280;3145;42.726;23.342;2023-04-24T00:08:28;72516.56;;;-142.70;56.20
6224;BME280;3145;42.726;23.342;2023-04-24T00:10:54;72512.56;;;-142.70;56.76
6224;BME280;3145;42.726;23.342;2023-04-24T00:13:21;72502.47;;;-142.70;56.96
6224;BME280;3145;42.726;23.342;2023-04-24T00:15:48;72496.44;;;-142.70;57.16
6224;BME280;3145;42.726;23.342;2023-04-24T00:18:15;72484.34;;;-142.70;58.09
6224;BME280;3145;42.726;23.342;2023-04-24T00:20:41;72490.38;;;-142.70;57.86
6224;BME280;3145;42.726;23.342;2023-04-24T00:23:10;72480.31;;;-142.70;57.61
6224;BME280;3145;42.726;23.342;2023-04-24T00:25:37;72476.28;;;-142.70;57.89
6224;BME280;3145;42.726;23.342;2023-04-24T00:28:03;72468.22;;;-142.70;57.39
6224;BME280;3145;42.726;23.342;2023-04-24T00:30:30;72464.19;;;-142.70;57.91
6224;BME280;3145;42.726;23.342;2023-04-24T00:32:57;72464.19;;;-142.70;57.28
6224;BME280;3145;42.726;23.342;2023-04-24T00:35:24;72454.13;;;-142.70;57.94
6224;BME280;3145;42.726;23.342;2023-04-24T00:37:50;72448.09;;;-142.70;58.22
6224;BME280;3145;42.726;23.342;2023-04-24T00:40:19;72440.03;;;-142.70;57.80
6224;BME280;3145;42.726;23.342;2023-04-24T00:42:45;72427.94;;;-142.70;58.21
6224;BME280;3145;42.726;23.342;2023-04-24T00:45:12;72421.91;;;-142.70;58.37
6224;BME280;3145;42.726;23.342;2023-04-24T00:47:39;72417.88;;;-142.70;58.59
6224;BME280;3145;42.726;23.342;2023-04-24T00:50:08;72415.84;;;-142.70;58.97
6224;BME280;3145;42.726;23.342;2023-04-24T00:52:36;72409.81;;;-142.70;58.41
6224;BME280;3145;42.726;23.342;2023-04-24T00:55:06;72407.81;;;-142.70;57.99
6224;BME280;3145;42.726;23.342;2023-04-24T00:57:35;72399.75;;;-142.70;58.25
6224;BME280;3145;42.726;23.342;2023-04-24T01:00:02;72399.75;;;-142.70;57.76
6224;BME280;3145;42.726;23.342;2023-04-24T01:02:31;72393.69;;;-142.70;57.36
6224;BME280;3145;42.726;23.342;2023-04-24T01:05:00;72391.69;;;-142.70;55.62
6224;BME280;3145;42.726;23.342;2023-04-24T01:07:27;72395.72;;;-142.70;54.23
6224;BME280;3145;42.726;23.342;2023-04-24T01:09:53;72395.72;;;-142.70;54.33
6224;BME280;3145;42.726;23.342;2023-04-24T01:12:20;72403.78;;;-142.70;54.55
6224;BME280;3145;42.726;23.342;2023-04-24T01:14:49;72395.72;;;-142.70;54.70
6224;BME280;3145;42.726;23.342;2023-04-24T01:17:15;72391.69;;;-142.70;54.03
6224;BME280;3145;42.726;23.342;2023-04-24T01:19:42;72387.66;;;-142.70;54.68
6224;BME280;3145;42.726;23.342;2023-04-24T01:22:13;72395.72;;;-142.70;54.75
6224;BME280;3145;42.726;23.342;2023-04-24T01:24:40;72399.75;;;-142.70;56.07
6224;BME280;3145;42.726;23.342;2023-04-24T01:27:08;72395.72;;;-142.70;57.59
6224;BME280;3145;42.726;23.342;2023-04-24T01:29:36;72403.78;;;-142.70;59.21
6224;BME280;3145;42.726;23.342;2023-04-24T01:32:03;72401.75;;;-142.70;59.82
6224;BME280;3145;42.726;23.342;2023-04-24T01:34:30;72393.69;;;-142.70;60.05
6224;BME280;3145;42.726;23.342;2023-04-24T01:36:57;72387.66;;;-142.70;60.01
6224;BME280;3145;42.726;23.342;2023-04-24T01:39:25;72395.72;;;-142.70;59.15
6224;BME280;3145;42.726;23.342;2023-04-24T01:41:53;72411.81;;;-142.70;59.38
6224;BME280;3145;42.726;23.342;2023-04-24T01:44:20;72419.88;;;-142.70;59.85
6224;BME280;3145;42.726;23.342;2023-04-24T01:46:47;72423.91;;;-142.70;60.46
6224;BME280;3145;42.726;23.342;2023-04-24T01:49:14;72425.94;;;-142.70;60.86
6224;BME280;3145;42.726;23.342;2023-04-24T01:51:41;72425.94;;;-142.70;61.13
6224;BME280;3145;42.726;23.342;2023-04-24T01:54:08;72427.94;;;-142.70;61.41
6224;BME280;3145;42.726;23.342;2023-04-24T01:56:36;72438.00;;;-142.70;61.88
6224;BME280;3145;42.726;23.342;2023-04-24T01:59:07;72440.03;;;-142.70;62.25
6224;BME280;3145;42.726;23.342;2023-04-24T02:01:36;72460.16;;;-142.70;62.14
6224;BME280;3145;42.726;23.342;2023-04-24T02:04:03;72456.16;;;-142.70;62.72
6224;BME280;3145;42.726;23.342;2023-04-24T02:06:30;72466.22;;;-142.70;62.81
6224;BME280;3145;42.726;23.342;2023-04-24T02:08:57;72460.16;;;-142.70;63.05
6224;BME280;3145;42.726;23.342;2023-04-24T02:11:24;72464.19;;;-142.70;63.39
6224;BME280;3145;42.726;23.342;2023-04-24T02:13:52;72472.25;;;-142.70;63.56
6224;BME280;3145;42.726;23.342;2023-04-24T02:16:19;72468.22;;;-142.70;63.60
6224;BME280;3145;42.726;23.342;2023-04-24T02:18:46;72464.19;;;-142.70;63.48
6224;BME280;3145;42.726;23.342;2023-04-24T02:21:13;72468.22;;;-142.70;63.45
6224;BME280;3145;42.726;23.342;2023-04-24T02:23:39;72464.19;;;-142.70;63.39
6224;BME280;3145;42.726;23.342;2023-04-24T02:26:06;72460.16;;;-142.70;63.35
6224;BME280;3145;42.726;23.342;2023-04-24T02:28:33;72468.22;;;-142.70;63.25
6224;BME280;3145;42.726;23.342;2023-04-24T02:31:01;72468.22;;;-142.70;63.32
6224;BME280;3145;42.726;23.342;2023-04-24T02:33:28;72472.25;;;-142.70;63.38
6224;BME280;3145;42.726;23.342;2023-04-24T02:35:55;72468.22;;;-142.70;63.38
6224;BME280;3145;42.726;23.342;2023-04-24T02:38:21;72462.19;;;-142.70;63.30
6224;BME280;3145;42.726;23.342;2023-04-24T02:40:48;72468.22;;;-142.70;63.20
6224;BME280;3145;42.726;23.342;2023-04-24T02:43:15;72470.25;;;-142.70;62.91
6224;BME280;3145;42.726;23.342;2023-04-24T02:45:42;72490.38;;;-142.70;61.99
6224;BME280;3145;42.726;23.342;2023-04-24T02:48:10;72494.41;;;-142.70;62.57
6224;BME280;3145;42.726;23.342;2023-04-24T02:50:36;72496.44;;;-142.70;62.80
6224;BME280;3145;42.726;23.342;2023-04-24T02:53:03;72484.34;;;-142.70;62.78
6224;BME280;3145;42.726;23.342;2023-04-24T02:55:30;72496.44;;;-142.70;62.66
6224;BME280;3145;42.726;23.342;2023-04-24T02:57:56;72504.50;;;-142.70;62.98
6224;BME280;3145;42.726;23.342;2023-04-24T03:00:23;72502.47;;;-142.70;63.02
6224;BME280;3145;42.726;23.342;2023-04-24T03:02:50;72502.47;;;-142.70;63.35
6224;BME280;3145;42.726;23.342;2023-04-24T03:05:18;72500.47;;;-142.70;63.40
6224;BME280;3145;42.726;23.342;2023-04-24T03:07:45;72516.56;;;-142.70;63.43
6224;BME280;3145;42.726;23.342;2023-04-24T03:10:12;72512.56;;;-142.70;62.74
6224;BME280;3145;42.726;23.342;2023-04-24T03:12:38;72514.56;;;-142.70;63.16
6224;BME280;3145;42.726;23.342;2023-04-24T03:15:06;72512.56;;;-142.70;63.14
6224;BME280;3145;42.726;23.342;2023-04-24T03:17:33;72512.56;;;-142.70;63.04
6224;BME280;3145;42.726;23.342;2023-04-24T03:20:00;72520.59;;;-142.70;63.03
6224;BME280;3145;42.726;23.342;2023-04-24T03:22:28;72512.56;;;-142.70;63.25
6224;BME280;3145;42.726;23.342;2023-04-24T03:24:55;72508.53;;;-142.70;63.45
6224;BME280;3145;42.726;23.342;2023-04-24T03:27:22;72500.47;;;-142.70;63.08
6224;BME280;3145;42.726;23.342;2023-04-24T03:29:48;72500.47;;;-142.70;62.84
6224;BME280;3145;42.726;23.342;2023-04-24T03:32:19;72496.44;;;-142.70;62.87
6224;BME280;3145;42.726;23.342;2023-04-24T03:34:45;72500.47;;;-142.70;62.97
6224;BME280;3145;42.726;23.342;2023-04-24T03:37:12;72492.41;;;-142.70;63.08
6224;BME280;3145;42.726;23.342;2023-04-24T03:39:40;72494.41;;;-142.70;62.92
6224;BME280;3145;42.726;23.342;2023-04-24T03:42:07;72492.41;;;-142.70;62.67
6224;BME280;3145;42.726;23.342;2023-04-24T03:44:34;72484.34;;;-142.70;62.88
6224;BME280;3145;42.726;23.342;2023-04-24T03:47:01;72486.34;;;-142.70;62.61
6224;BME280;3145;42.726;23.342;2023-04-24T03:49:27;72482.34;;;-142.70;62.51
6224;BME280;3145;42.726;23.342;2023-04-24T03:51:54;72456.16;;;-142.70;62.52
6224;BME280;3145;42.726;23.342;2023-04-24T03:54:21;72433.97;;;-142.70;61.99
6224;BME280;3145;42.726;23.342;2023-04-24T03:56:49;72399.75;;;-142.70;61.05
6224;BME280;3145;42.726;23.342;2023-04-24T03:59:16;72381.59;;;-142.70;60.05
6224;BME280;3145;42.726;23.342;2023-04-24T04:01:43;72369.53;;;-142.70;60.28
6224;BME280;3145;42.726;23.342;2023-04-24T04:04:10;72355.41;;;-142.70;62.37
6224;BME280;3145;42.726;23.342;2023-04-24T04:06:37;72329.22;;;-142.70;63.16
6224;BME280;3145;42.726;23.342;2023-04-24T04:09:04;72303.06;;;-142.70;61.68
6224;BME280;3145;42.726;23.342;2023-04-24T04:11:30;72303.06;;;-142.70;59.20
6224;BME280;3145;42.726;23.342;2023-04-24T04:13:58;72307.06;;;-142.70;57.46
6224;BME280;3145;42.726;23.342;2023-04-24T04:16:30;72313.13;;;-142.70;57.70
6224;BME280;3145;42.726;23.342;2023-04-24T04:18:57;72299.03;;;-142.70;58.28
6224;BME280;3145;42.726;23.342;2023-04-24T04:21:24;72299.03;;;-142.70;57.91
6224;BME280;3145;42.726;23.342;2023-04-24T04:23:51;72335.28;;;-142.70;57.52
6224;BME280;3145;42.726;23.342;2023-04-24T04:26:18;72367.50;;;-142.70;58.84
6224;BME280;3145;42.726;23.342;2023-04-24T04:28:46;72355.41;;;-142.70;59.78
6224;BME280;3145;42.726;23.342;2023-04-24T04:31:15;72323.19;;;-142.70;59.47
6224;BME280;3145;42.726;23.342;2023-04-24T04:33:42;72303.06;;;-142.70;57.94
6224;BME280;3145;42.726;23.342;2023-04-24T04:36:09;72295.00;;;-142.70;56.38
6224;BME280;3145;42.726;23.342;2023-04-24T04:38:35;72282.91;;;-142.70;56.10
6224;BME280;3145;42.726;23.342;2023-04-24T04:41:03;72276.88;;;-142.70;55.43
6224;BME280;3145;42.726;23.342;2023-04-24T04:43:30;72278.88;;;-142.70;54.77
6224;BME280;3145;42.726;23.342;2023-04-24T04:45:58;72270.81;;;-142.70;54.31
6224;BME280;3145;42.726;23.342;2023-04-24T04:48:27;72262.75;;;-142.70;54.33
6224;BME280;3145;42.726;23.342;2023-04-24T04:50:53;72256.72;;;-142.70;54.16
6224;BME280;3145;42.726;23.342;2023-04-24T04:53:20;72258.72;;;-142.70;54.09
6224;BME280;3145;42.726;23.342;2023-04-24T04:55:47;72238.59;;;-142.70;54.26
6224;BME280;3145;42.726;23.342;2023-04-24T04:58:14;72232.53;;;-142.70;53.79
6224;BME280;3145;42.726;23.342;2023-04-24T05:00:40;72226.50;;;-142.70;53.08
6224;BME280;3145;42.726;23.342;2023-04-24T05:03:07;72214.41;;;-142.70;52.75
6224;BME280;3145;42.726;23.342;2023-04-24T05:05:36;72208.38;;;-142.70;52.28
6224;BME280;3145;42.726;23.342;2023-04-24T05:08:06;72188.22;;;-142.70;53.03
6224;BME280;3145;42.726;23.342;2023-04-24T05:10:32;72174.13;;;-142.70;52.27
6224;BME280;3145;42.726;23.342;2023-04-24T05:12:59;72158.03;;;-142.70;51.27
6224;BME280;3145;42.726;23.342;2023-04-24T05:15:26;72137.88;;;-142.70;50.39
6224;BME280;3145;42.726;23.342;2023-04-24T05:17:52;72125.78;;;-142.70;49.75
6224;BME280;3145;42.726;23.342;2023-04-24T05:20:19;72099.59;;;-142.70;49.37
6224;BME280;3145;42.726;23.342;2023-04-24T05:22:47;72091.53;;;-142.70;48.84
6224;BME280;3145;42.726;23.342;2023-04-24T05:25:14;72083.50;;;-142.70;48.93
6224;BME280;3145;42.726;23.342;2023-04-24T05:27:41;72073.41;;;-142.70;48.61
6224;BME280;3145;42.726;23.342;2023-04-24T05:30:08;72057.31;;;-142.70;47.83
6224;BME280;3145;42.726;23.342;2023-04-24T05:32:35;72045.22;;;-142.70;46.95
6224;BME280;3145;42.726;23.342;2023-04-24T05:35:03;72055.28;;;-142.70;46.52
6224;BME280;3145;42.726;23.342;2023-04-24T05:37:29;72069.38;;;-142.70;46.32
6224;BME280;3145;42.726;23.342;2023-04-24T05:39:57;72069.38;;;-142.70;46.85
6224;BME280;3145;42.726;23.342;2023-04-24T05:42:24;72053.28;;;-142.70;47.07
6224;BME280;3145;42.726;23.342;2023-04-24T05:44:51;72053.28;;;-142.70;46.54
6224;BME280;3145;42.726;23.342;2023-04-24T05:47:19;72021.06;;;-142.70;46.34
6224;BME280;3145;42.726;23.342;2023-04-24T05:49:46;72010.97;;;-142.70;44.77
6224;BME280;3145;42.726;23.342;2023-04-24T05:52:13;72004.94;;;-142.70;45.23
6224;BME280;3145;42.726;23.342;2023-04-24T05:54:40;71996.88;;;-142.70;45.06
6224;BME280;3145;42.726;23.342;2023-04-24T05:57:08;71986.81;;;-142.70;44.80
6224;BME280;3145;42.726;23.342;2023-04-24T05:59:36;71984.78;;;-142.70;44.77
6224;BME280;3145;42.726;23.342;2023-04-24T06:02:04;71950.56;;;-142.70;44.39
6224;BME280;3145;42.726;23.342;2023-04-24T06:04:31;71922.34;;;-142.70;43.71
6224;BME280;3145;42.726;23.342;2023-04-24T06:06:58;71898.19;;;-142.70;42.38
6224;BME280;3145;42.726;23.342;2023-04-24T06:09:25;71855.88;;;-142.70;42.75
6224;BME280;3145;42.726;23.342;2023-04-24T06:11:52;71821.66;;;-142.70;41.79
6224;BME280;3145;42.726;23.342;2023-04-24T06:14:20;71799.50;;;-142.70;40.50
6224;BME280;3145;42.726;23.342;2023-04-24T06:16:47;71849.84;;;-142.70;42.00
6224;BME280;3145;42.726;23.342;2023-04-24T06:19:14;71847.84;;;-142.70;41.25
6224;BME280;3145;42.726;23.342;2023-04-24T06:21:41;71886.09;;;-142.70;42.05
6224;BME280;3145;42.726;23.342;2023-04-24T06:24:07;71886.09;;;-142.70;42.66
6224;BME280;3145;42.726;23.342;2023-04-24T06:26:34;71827.69;;;-142.70;42.19
6224;BME280;3145;42.726;23.342;2023-04-24T06:29:01;71811.56;;;-142.70;41.65
6224;BME280;3145;42.726;23.342;2023-04-24T06:31:29;71823.66;;;-142.70;42.48
6224;BME280;3145;42.726;23.342;2023-04-24T06:33:55;71771.28;;;-142.70;41.87
6224;BME280;3145;42.726;23.342;2023-04-24T06:36:22;71710.88;;;-142.70;40.74
6224;BME280;3145;42.726;23.342;2023-04-24T06:38:49;71648.44;;;-142.70;40.17
6224;BME280;3145;42.726;23.342;2023-04-24T06:41:16;71594.06;;;-142.70;39.52
6224;BME280;3145;42.726;23.342;2023-04-24T06:43:42;71586.00;;;-142.70;38.59
6224;BME280;3145;42.726;23.342;2023-04-24T06:46:10;71553.78;;;-142.70;38.93
6224;BME280;3145;42.726;23.342;2023-04-24T06:48:38;71513.50;;;-142.70;38.50
6224;BME280;3145;42.726;23.342;2023-04-24T06:51:05;71451.06;;;-142.70;37.49
6224;BME280;3145;42.726;23.342;2023-04-24T06:53:32;71453.09;;;-142.70;36.68
6224;BME280;3145;42.726;23.342;2023-04-24T06:55:59;71525.59;;;-142.70;37.34
6224;BME280;3145;42.726;23.342;2023-04-24T06:58:25;71487.31;;;-142.70;37.64
6224;BME280;3145;42.726;23.342;2023-04-24T07:00:53;71467.19;;;-142.70;37.32
6224;BME280;3145;42.726;23.342;2023-04-24T07:03:19;71529.63;;;-142.70;38.06
6224;BME280;3145;42.726;23.342;2023-04-24T07:05:48;71545.72;;;-142.70;38.25
6224;BME280;3145;42.726;23.342;2023-04-24T07:08:14;71586.00;;;-142.70;39.20
6224;BME280;3145;42.726;23.342;2023-04-24T07:10:42;71634.34;;;-142.70;40.01
6224;BME280;3145;42.726;23.342;2023-04-24T07:13:09;71626.28;;;-142.70;40.03
6224;BME280;3145;42.726;23.342;2023-04-24T07:15:36;71594.06;;;-142.70;40.31
6224;BME280;3145;42.726;23.342;2023-04-24T07:18:02;71581.97;;;-142.70;40.90
6224;BME280;3145;42.726;23.342;2023-04-24T07:20:29;71586.00;;;-142.70;39.86
6224;BME280;3145;42.726;23.342;2023-04-24T07:22:57;71648.44;;;-142.70;40.14
6224;BME280;3145;42.726;23.342;2023-04-24T07:25:24;71682.69;;;-142.70;40.08
6224;BME280;3145;42.726;23.342;2023-04-24T07:27:51;71648.44;;;-142.70;39.64
6224;BME280;3145;42.726;23.342;2023-04-24T07:30:18;71620.25;;;-142.70;39.99
6224;BME280;3145;42.726;23.342;2023-04-24T07:32:45;71634.34;;;-142.70;39.92
6224;BME280;3145;42.726;23.342;2023-04-24T07:35:11;71620.25;;;-142.70;40.39
6224;BME280;3145;42.726;23.342;2023-04-24T07:37:38;71648.44;;;-142.70;39.85
6224;BME280;3145;42.726;23.342;2023-04-24T07:40:07;71658.50;;;-142.70;40.65
6224;BME280;3145;42.726;23.342;2023-04-24T07:42:34;71636.34;;;-142.70;40.87
6224;BME280;3145;42.726;23.342;2023-04-24T07:45:01;71541.69;;;-142.70;40.17
6224;BME280;3145;42.726;23.342;2023-04-24T07:47:28;71469.19;;;-142.70;39.14
6224;BME280;3145;42.726;23.342;2023-04-24T07:49:55;71384.63;;;-142.70;38.17
6224;BME280;3145;42.726;23.342;2023-04-24T07:52:22;71451.06;;;-142.70;39.24
6224;BME280;3145;42.726;23.342;2023-04-24T07:54:48;71473.22;;;-142.70;37.73
6224;BME280;3145;42.726;23.342;2023-04-24T07:57:19;71439.00;;;-142.70;38.12
6224;BME280;3145;42.726;23.342;2023-04-24T07:59:45;71372.53;;;-142.70;38.02
6224;BME280;3145;42.726;23.342;2023-04-24T08:02:12;71412.81;;;-142.70;38.08
6224;BME280;3145;42.726;23.342;2023-04-24T08:04:40;71370.53;;;-142.70;37.46
6224;BME280;3145;42.726;23.342;2023-04-24T08:07:06;71330.25;;;-142.70;37.14
6224;BME280;3145;42.726;23.342;2023-04-24T08:09:33;71396.69;;;-142.70;36.50
6224;BME280;3145;42.726;23.342;2023-04-24T08:12:00;71380.59;;;-142.70;36.42
6224;BME280;3145;42.726;23.342;2023-04-24T08:14:29;71372.53;;;-142.70;36.56
6224;BME280;3145;42.726;23.342;2023-04-24T08:16:55;71457.13;;;-142.70;37.94
6224;BME280;3145;42.726;23.342;2023-04-24T08:19:24;71396.69;;;-142.70;38.13
6224;BME280;3145;42.726;23.342;2023-04-24T08:21:51;71376.56;;;-142.70;37.98
6224;BME280;3145;42.726;23.342;2023-04-24T08:24:18;71378.56;;;-142.70;36.39
6224;BME280;3145;42.726;23.342;2023-04-24T08:26:45;71420.88;;;-142.70;37.22
6224;BME280;3145;42.726;23.342;2023-04-24T08:29:12;71436.97;;;-142.70;37.37
6224;BME280;3145;42.726;23.342;2023-04-24T08:31:40;71465.16;;;-142.70;37.66
6224;BME280;3145;42.726;23.342;2023-04-24T08:34:06;71366.50;;;-142.70;36.87
6224;BME280;3145;42.726;23.342;2023-04-24T08:36:33;71348.38;;;-142.70;36.60
6224;BME280;3145;42.726;23.342;2023-04-24T08:39:00;71340.31;;;-142.70;36.47
6224;BME280;3145;42.726;23.342;2023-04-24T08:41:27;71328.22;;;-142.70;35.98
6224;BME280;3145;42.726;23.342;2023-04-24T08:43:54;71352.41;;;-142.70;36.10
6224;BME280;3145;42.726;23.342;2023-04-24T08:46:24;71304.06;;;-142.70;35.96
6224;BME280;3145;42.726;23.342;2023-04-24T08:48:52;71296.00;;;-142.70;35.81
6224;BME280;3145;42.726;23.342;2023-04-24T08:51:19;71332.25;;;-142.70;36.41
6224;BME280;3145;42.726;23.342;2023-04-24T08:53:47;71265.81;;;-142.70;36.02
6224;BME280;3145;42.726;23.342;2023-04-24T08:56:13;71171.16;;;-142.70;35.69
6224;BME280;3145;42.726;23.342;2023-04-24T08:58:42;71175.19;;;-142.70;35.16
6224;BME280;3145;42.726;23.342;2023-04-24T09:01:10;71167.13;;;-142.70;34.60
6224;BME280;3145;42.726;23.342;2023-04-24T09:03:37;71144.97;;;-142.70;34.31
6224;BME280;3145;42.726;23.342;2023-04-24T09:06:08;71114.78;;;-142.70;34.44
6224;BME280;3145;42.726;23.342;2023-04-24T09:08:36;71207.41;;;-142.70;35.00
6224;BME280;3145;42.726;23.342;2023-04-24T09:11:02;71231.56;;;-142.70;35.45
6224;BME280;3145;42.726;23.342;2023-04-24T09:13:30;71211.44;;;-142.70;35.42
6224;BME280;3145;42.726;23.342;2023-04-24T09:15:58;71239.63;;;-142.70;35.20
6224;BME280;3145;42.726;23.342;2023-04-24T09:18:26;71251.72;;;-142.70;35.53
6224;BME280;3145;42.726;23.342;2023-04-24T09:21:00;71211.44;;;-142.70;35.87
6224;BME280;3145;42.726;23.342;2023-04-24T09:23:30;71215.47;;;-142.70;35.46
6224;BME280;3145;42.726;23.342;2023-04-24T09:25:58;71219.50;;;-142.70;34.83
6224;BME280;3145;42.726;23.342;2023-04-24T09:28:26;71191.28;;;-142.70;35.73
6224;BME280;3145;42.726;23.342;2023-04-24T09:31:03;71181.22;;;-142.70;34.70
6224;BME280;3145;42.726;23.342;2023-04-24T09:33:30;71147.00;;;-142.70;34.47
6224;BME280;3145;42.726;23.342;2023-04-24T09:35:57;71134.91;;;-142.70;34.25
6224;BME280;3145;42.726;23.342;2023-04-24T09:38:32;71157.06;;;-142.70;34.62
6224;BME280;3145;42.726;23.342;2023-04-24T09:41:00;71098.66;;;-142.70;33.80
6224;BME280;3145;42.726;23.342;2023-04-24T09:43:29;71046.31;;;-142.70;33.34
6224;BME280;3145;42.726;23.342;2023-04-24T09:45:56;71002.00;;;-142.70;32.94
6224;BME280;3145;42.726;23.342;2023-04-24T09:48:30;71004.03;;;-142.70;32.64
6224;BME280;3145;42.726;23.342;2023-04-24T09:50:57;70981.88;;;-142.70;32.15
6224;BME280;3145;42.726;23.342;2023-04-24T09:53:24;70901.34;;;-142.70;32.29
6224;BME280;3145;42.726;23.342;2023-04-24T09:55:53;70800.66;;;-142.70;31.71
6224;BME280;3145;42.726;23.342;2023-04-24T09:58:24;70732.19;;;-142.70;31.94
6224;BME280;3145;42.726;23.342;2023-04-24T10:00:53;70804.69;;;-142.70;30.92
6224;BME280;3145;42.726;23.342;2023-04-24T10:03:22;70840.94;;;-142.70;30.96
6224;BME280;3145;42.726;23.342;2023-04-24T10:05:51;70848.97;;;-142.70;31.24
6224;BME280;3145;42.726;23.342;2023-04-24T10:08:18;70873.16;;;-142.70;31.33
6224;BME280;3145;42.726;23.342;2023-04-24T10:10:45;70897.31;;;-142.70;32.07
6224;BME280;3145;42.726;23.342;2023-04-24T10:13:14;70881.19;;;-142.70;31.83
6224;BME280;3145;42.726;23.342;2023-04-24T10:15:41;70889.25;;;-142.70;31.68
6224;BME280;3145;42.726;23.342;2023-04-24T10:18:09;70961.75;;;-142.70;32.70
6224;BME280;3145;42.726;23.342;2023-04-24T10:20:37;71006.03;;;-142.70;33.18
6224;BME280;3145;42.726;23.342;2023-04-24T10:23:05;70937.56;;;-142.70;32.66
6224;BME280;3145;42.726;23.342;2023-04-24T10:25:32;70973.81;;;-142.70;31.70
6224;BME280;3145;42.726;23.342;2023-04-24T10:28:01;71018.13;;;-142.70;32.99
6224;BME280;3145;42.726;23.342;2023-04-24T10:30:30;71092.63;;;-142.70;33.42
6224;BME280;3145;42.726;23.342;2023-04-24T10:33:00;71086.59;;;-142.70;33.36
6224;BME280;3145;42.726;23.342;2023-04-24T10:35:30;71062.41;;;-142.70;33.58
6224;BME280;3145;42.726;23.342;2023-04-24T10:37:59;70997.97;;;-142.70;32.56
6224;BME280;3145;42.726;23.342;2023-04-24T10:40:30;70933.56;;;-142.70;32.76
6224;BME280;3145;42.726;23.342;2023-04-24T10:42:57;70881.19;;;-142.70;31.76
6224;BME280;3145;42.726;23.342;2023-04-24T10:45:24;70873.16;;;-142.70;31.45
6224;BME280;3145;42.726;23.342;2023-04-24T10:47:56;70808.72;;;-142.70;31.42
6224;BME280;3145;42.726;23.342;2023-04-24T10:50:25;70814.75;;;-142.70;31.05
6224;BME280;3145;42.726;23.342;2023-04-24T10:52:52;70861.06;;;-142.70;30.94
6224;BME280;3145;42.726;23.342;2023-04-24T10:55:40;70836.91;;;-142.70;31.35
6224;BME280;3145;42.726;23.342;2023-04-24T10:58:07;70836.91;;;-142.70;31.54
6224;BME280;3145;42.726;23.342;2023-04-24T11:00:36;70836.91;;;-142.70;30.67
6224;BME280;3145;42.726;23.342;2023-04-24T11:03:06;70846.97;;;-142.70;31.22
6224;BME280;3145;42.726;23.342;2023-04-24T11:05:54;70907.38;;;-142.70;32.01
6224;BME280;3145;42.726;23.342;2023-04-24T11:08:23;70991.94;;;-142.70;31.96
6224;BME280;3145;42.726;23.342;2023-04-24T11:10:59;70955.69;;;-142.70;31.81
6224;BME280;3145;42.726;23.342;2023-04-24T11:13:31;70949.66;;;-142.70;31.86
6224;BME280;3145;42.726;23.342;2023-04-24T11:16:16;70993.97;;;-142.70;31.94
6224;BME280;3145;42.726;23.342;2023-04-24T11:18:51;70985.91;;;-142.70;32.41
6224;BME280;3145;42.726;23.342;2023-04-24T11:21:20;70953.69;;;-142.70;31.82
6224;BME280;3145;42.726;23.342;2023-04-24T11:23:48;70949.66;;;-142.70;31.63
6224;BME280;3145;42.726;23.342;2023-04-24T11:26:18;70975.84;;;-142.70;31.94
6224;BME280;3145;42.726;23.342;2023-04-24T11:28:50;71026.19;;;-142.70;34.96
6224;BME280;3145;42.726;23.342;2023-04-24T11:31:37;71144.97;;;-142.70;42.86
6224;BME280;3145;42.726;23.342;2023-04-24T11:34:09;71167.13;;;-142.70;43.82
6224;BME280;3145;42.726;23.342;2023-04-24T11:36:37;71183.25;;;-142.70;45.00
6224;BME280;3145;42.726;23.342;2023-04-24T11:39:05;71195.31;;;-142.70;46.85
6224;BME280;3145;42.726;23.342;2023-04-24T11:41:32;71155.06;;;-142.70;46.37
6224;BME280;3145;42.726;23.342;2023-04-24T11:44:00;71120.81;;;-142.70;47.33
6224;BME280;3145;42.726;23.342;2023-04-24T11:46:28;71078.53;;;-142.70;44.81
6224;BME280;3145;42.726;23.342;2023-04-24T11:48:56;71022.16;;;-142.70;46.48
6224;BME280;3145;42.726;23.342;2023-04-24T11:51:24;70983.88;;;-142.70;41.84
6224;BME280;3145;42.726;23.342;2023-04-24T11:53:52;70913.41;;;-142.70;42.29
6224;BME280;3145;42.726;23.342;2023-04-24T11:56:19;70905.34;;;-142.70;39.87
6224;BME280;3145;42.726;23.342;2023-04-24T11:58:46;70881.19;;;-142.70;39.04
6224;BME280;3145;42.726;23.342;2023-04-24T12:01:13;70917.44;;;-142.70;37.59
6224;BME280;3145;42.726;23.342;2023-04-24T12:03:40;70921.47;;;-142.70;38.18
6224;BME280;3145;42.726;23.342;2023-04-24T12:06:10;70929.53;;;-142.70;38.93
6224;BME280;3145;42.726;23.342;2023-04-24T12:08:39;70905.34;;;-142.70;38.01
6224;BME280;3145;42.726;23.342;2023-04-24T12:11:07;70867.09;;;-142.70;38.03
6224;BME280;3145;42.726;23.342;2023-04-24T12:13:34;70885.22;;;-142.70;36.34
6224;BME280;3145;42.726;23.342;2023-04-24T12:16:03;70873.16;;;-142.70;36.14
6224;BME280;3145;42.726;23.342;2023-04-24T12:18:30;70897.31;;;-142.70;34.73
6224;BME280;3145;42.726;23.342;2023-04-24T12:21:14;70909.38;;;-142.70;36.44
6224;BME280;3145;42.726;23.342;2023-04-24T12:23:44;70935.56;;;-142.70;34.02
6224;BME280;3145;42.726;23.342;2023-04-24T12:26:11;70947.66;;;-142.70;32.96
6224;BME280;3145;42.726;23.342;2023-04-24T12:28:38;70961.75;;;-142.70;32.94
6224;BME280;3145;42.726;23.342;2023-04-24T12:31:06;70985.91;;;-142.70;35.19
6224;BME280;3145;42.726;23.342;2023-04-24T12:33:34;70963.75;;;-142.70;36.22
6224;BME280;3145;42.726;23.342;2023-04-24T12:36:01;70953.69;;;-142.70;35.83
6224;BME280;3145;42.726;23.342;2023-04-24T12:38:29;70953.69;;;-142.70;35.28
6224;BME280;3145;42.726;23.342;2023-04-24T12:41:05;70937.56;;;-142.70;35.68
6224;BME280;3145;42.726;23.342;2023-04-24T12:43:32;70905.34;;;-142.70;34.02
6224;BME280;3145;42.726;23.342;2023-04-24T12:45:59;70893.28;;;-142.70;34.82
6224;BME280;3145;42.726;23.342;2023-04-24T12:48:26;70905.34;;;-142.70;35.14
6224;BME280;3145;42.726;23.342;2023-04-24T12:50:53;70865.09;;;-142.70;36.31
6224;BME280;3145;42.726;23.342;2023-04-24T12:53:20;70861.06;;;-142.70;33.59